sensor_id;sensor_type;location;lat;lon;timestamp;P1;durP1;ratioP1;P2;durP2;ratioP2
75691;SDS011;64307;52.508;6.090;2024-01-06T00:00:10;13.38;;;5.30;;
75691;SDS011;64307;52.508;6.090;2024-01-06T00:02:36;11.10;;;4.97;;
75691;SDS011;64307;52.508;6.090;2024-01-06T00:05:01;11.07;;;5.77;;
75691;SDS011;64307;52.508;6.090;2024-01-06T00:07:26;11.17;;;5.17;;
75691;SDS011;64307;52.508;6.090;2024-01-06T00:09:51;11.47;;;5.43;;
75691;SDS011;64307;52.508;6.090;2024-01-06T00:12:17;10.63;;;5.95;;
75691;SDS011;64307;52.508;6.090;2024-01-06T00:14:43;10.57;;;5.20;;
75691;SDS011;64307;52.508;6.090;2024-01-06T00:17:10;12.68;;;6.10;;
75691;SDS011;64307;52.508;6.090;2024-01-06T00:19:35;12.43;;;6.28;;
75691;SDS011;64307;52.508;6.090;2024-01-06T00:22:00;13.73;;;5.67;;
75691;SDS011;64307;52.508;6.090;2024-01-06T00:24:25;13.30;;;5.87;;
75691;SDS011;64307;52.508;6.090;2024-01-06T00:26:51;13.00;;;6.23;;
75691;SDS011;64307;52.508;6.090;2024-01-06T00:29:16;14.73;;;6.32;;
75691;SDS011;64307;52.508;6.090;2024-01-06T00:31:41;13.50;;;6.00;;
75691;SDS011;64307;52.508;6.090;2024-01-06T00:34:06;13.47;;;6.87;;
75691;SDS011;64307;52.508;6.090;2024-01-06T00:36:32;13.53;;;6.60;;
75691;SDS011;64307;52.508;6.090;2024-01-06T00:38:57;14.52;;;7.32;;
75691;SDS011;64307;52.508;6.090;2024-01-06T00:41:22;14.03;;;6.33;;
75691;SDS011;64307;52.508;6.090;2024-01-06T00:43:48;13.17;;;6.27;;
75691;SDS011;64307;52.508;6.090;2024-01-06T00:46:13;14.83;;;6.80;;
75691;SDS011;64307;52.508;6.090;2024-01-06T00:48:39;14.45;;;6.80;;
75691;SDS011;64307;52.508;6.090;2024-01-06T00:51:04;13.03;;;6.23;;
75691;SDS011;64307;52.508;6.090;2024-01-06T00:53:29;12.60;;;6.30;;
75691;SDS011;64307;52.508;6.090;2024-01-06T00:55:54;13.17;;;6.63;;
75691;SDS011;64307;52.508;6.090;2024-01-06T00:58:19;13.17;;;6.80;;
75691;SDS011;64307;52.508;6.090;2024-01-06T01:00:44;14.90;;;7.03;;
75691;SDS011;64307;52.508;6.090;2024-01-06T01:03:10;14.63;;;6.97;;
75691;SDS011;64307;52.508;6.090;2024-01-06T01:05:35;15.23;;;6.93;;
75691;SDS011;64307;52.508;6.090;2024-01-06T01:08:00;15.00;;;6.30;;
75691;SDS011;64307;52.508;6.090;2024-01-06T01:10:25;12.97;;;6.60;;
75691;SDS011;64307;52.508;6.090;2024-01-06T01:12:51;14.60;;;6.70;;
75691;SDS011;64307;52.508;6.090;2024-01-06T01:15:16;14.17;;;6.80;;
75691;SDS011;64307;52.508;6.090;2024-01-06T01:17:41;14.83;;;6.97;;
75691;SDS011;64307;52.508;6.090;2024-01-06T01:20:06;15.97;;;7.43;;
75691;SDS011;64307;52.508;6.090;2024-01-06T01:22:32;16.23;;;6.65;;
75691;SDS011;64307;52.508;6.090;2024-01-06T01:24:57;17.37;;;7.33;;
75691;SDS011;64307;52.508;6.090;2024-01-06T01:27:22;15.60;;;6.97;;
75691;SDS011;64307;52.508;6.090;2024-01-06T01:29:48;18.20;;;7.63;;
75691;SDS011;64307;52.508;6.090;2024-01-06T01:32:17;16.08;;;7.82;;
75691;SDS011;64307;52.508;6.090;2024-01-06T01:34:42;17.13;;;7.73;;
75691;SDS011;64307;52.508;6.090;2024-01-06T01:37:07;19.73;;;7.67;;
75691;SDS011;64307;52.508;6.090;2024-01-06T01:39:33;20.40;;;8.83;;
75691;SDS011;64307;52.508;6.090;2024-01-06T01:41:58;21.40;;;9.23;;
75691;SDS011;64307;52.508;6.090;2024-01-06T01:44:23;19.40;;;7.67;;
75691;SDS011;64307;52.508;6.090;2024-01-06T01:46:48;17.27;;;8.03;;
75691;SDS011;64307;52.508;6.090;2024-01-06T01:49:14;21.33;;;10.27;;
75691;SDS011;64307;52.508;6.090;2024-01-06T01:51:39;20.88;;;8.77;;
75691;SDS011;64307;52.508;6.090;2024-01-06T01:54:05;19.50;;;8.85;;
75691;SDS011;64307;52.508;6.090;2024-01-06T01:56:31;20.95;;;9.82;;
75691;SDS011;64307;52.508;6.090;2024-01-06T01:59:01;20.30;;;9.50;;
75691;SDS011;64307;52.508;6.090;2024-01-06T02:01:28;19.55;;;9.07;;
75691;SDS011;64307;52.508;6.090;2024-01-06T02:03:53;18.15;;;9.43;;
75691;SDS011;64307;52.508;6.090;2024-01-06T02:06:19;20.20;;;9.50;;
75691;SDS011;64307;52.508;6.090;2024-01-06T02:08:44;18.13;;;7.87;;
75691;SDS011;64307;52.508;6.090;2024-01-06T02:11:09;16.77;;;7.80;;
75691;SDS011;64307;52.508;6.090;2024-01-06T02:13:35;18.23;;;8.30;;
75691;SDS011;64307;52.508;6.090;2024-01-06T02:16:00;19.38;;;7.57;;
75691;SDS011;64307;52.508;6.090;2024-01-06T02:18:26;16.58;;;8.05;;
75691;SDS011;64307;52.508;6.090;2024-01-06T02:20:51;17.33;;;8.10;;
75691;SDS011;64307;52.508;6.090;2024-01-06T02:23:18;19.98;;;8.93;;
75691;SDS011;64307;52.508;6.090;2024-01-06T02:25:43;17.97;;;8.27;;
75691;SDS011;64307;52.508;6.090;2024-01-06T02:28:08;19.80;;;8.73;;
75691;SDS011;64307;52.508;6.090;2024-01-06T02:30:33;19.37;;;9.77;;
75691;SDS011;64307;52.508;6.090;2024-01-06T02:32:58;19.00;;;8.23;;
75691;SDS011;64307;52.508;6.090;2024-01-06T02:35:23;20.37;;;8.90;;
75691;SDS011;64307;52.508;6.090;2024-01-06T02:37:49;22.67;;;8.70;;
75691;SDS011;64307;52.508;6.090;2024-01-06T02:40:15;21.33;;;9.37;;
75691;SDS011;64307;52.508;6.090;2024-01-06T02:42:40;17.13;;;8.55;;
75691;SDS011;64307;52.508;6.090;2024-01-06T02:45:07;20.38;;;8.77;;
75691;SDS011;64307;52.508;6.090;2024-01-06T02:49:57;18.00;;;8.60;;
75691;SDS011;64307;52.508;6.090;2024-01-06T02:52:22;18.33;;;8.43;;
75691;SDS011;64307;52.508;6.090;2024-01-06T02:54:49;18.48;;;8.50;;
75691;SDS011;64307;52.508;6.090;2024-01-06T02:57:14;22.17;;;10.90;;
75691;SDS011;64307;52.508;6.090;2024-01-06T02:59:40;19.77;;;8.63;;
75691;SDS011;64307;52.508;6.090;2024-01-06T03:02:05;17.67;;;8.00;;
75691;SDS011;64307;52.508;6.090;2024-01-06T03:04:30;18.08;;;7.88;;
75691;SDS011;64307;52.508;6.090;2024-01-06T03:06:55;18.33;;;8.43;;
75691;SDS011;64307;52.508;6.090;2024-01-06T03:09:21;18.03;;;7.57;;
75691;SDS011;64307;52.508;6.090;2024-01-06T03:11:46;20.10;;;7.90;;
75691;SDS011;64307;52.508;6.090;2024-01-06T03:14:11;19.40;;;8.97;;
75691;SDS011;64307;52.508;6.090;2024-01-06T03:16:36;18.43;;;8.30;;
75691;SDS011;64307;52.508;6.090;2024-01-06T03:19:02;18.13;;;8.10;;
75691;SDS011;64307;52.508;6.090;2024-01-06T03:21:27;20.23;;;8.20;;
75691;SDS011;64307;52.508;6.090;2024-01-06T03:23:53;17.43;;;8.20;;
75691;SDS011;64307;52.508;6.090;2024-01-06T03:26:20;20.02;;;8.73;;
75691;SDS011;64307;52.508;6.090;2024-01-06T03:28:45;17.33;;;8.63;;
75691;SDS011;64307;52.508;6.090;2024-01-06T03:31:10;17.23;;;9.13;;
75691;SDS011;64307;52.508;6.090;2024-01-06T03:33:35;17.47;;;8.23;;
75691;SDS011;64307;52.508;6.090;2024-01-06T03:36:04;14.87;;;7.50;;
75691;SDS011;64307;52.508;6.090;2024-01-06T03:38:30;17.15;;;7.55;;
75691;SDS011;64307;52.508;6.090;2024-01-06T03:40:55;18.90;;;8.20;;
75691;SDS011;64307;52.508;6.090;2024-01-06T03:43:21;17.73;;;7.68;;
75691;SDS011;64307;52.508;6.090;2024-01-06T03:45:46;17.60;;;7.23;;
75691;SDS011;64307;52.508;6.090;2024-01-06T03:48:11;15.80;;;7.40;;
75691;SDS011;64307;52.508;6.090;2024-01-06T03:50:36;16.03;;;7.60;;
75691;SDS011;64307;52.508;6.090;2024-01-06T03:53:01;15.40;;;7.10;;
75691;SDS011;64307;52.508;6.090;2024-01-06T03:55:26;15.97;;;7.50;;
75691;SDS011;64307;52.508;6.090;2024-01-06T03:57:52;16.52;;;7.45;;
75691;SDS011;64307;52.508;6.090;2024-01-06T04:00:17;16.50;;;6.83;;
75691;SDS011;64307;52.508;6.090;2024-01-06T04:02:42;16.38;;;6.70;;
75691;SDS011;64307;52.508;6.090;2024-01-06T04:05:08;15.20;;;7.47;;
75691;SDS011;64307;52.508;6.090;2024-01-06T04:07:33;16.53;;;6.73;;
75691;SDS011;64307;52.508;6.090;2024-01-06T04:09:58;16.13;;;6.40;;
75691;SDS011;64307;52.508;6.090;2024-01-06T04:12:23;14.13;;;6.77;;
75691;SDS011;64307;52.508;6.090;2024-01-06T04:14:48;15.93;;;7.90;;
75691;SDS011;64307;52.508;6.090;2024-01-06T04:17:13;16.83;;;7.00;;
75691;SDS011;64307;52.508;6.090;2024-01-06T04:19:39;14.63;;;6.93;;
75691;SDS011;64307;52.508;6.090;2024-01-06T04:22:04;13.73;;;6.73;;
75691;SDS011;64307;52.508;6.090;2024-01-06T04:24:29;17.27;;;9.35;;
75691;SDS011;64307;52.508;6.090;2024-01-06T04:26:55;14.98;;;7.22;;
75691;SDS011;64307;52.508;6.090;2024-01-06T04:29:20;16.52;;;7.25;;
75691;SDS011;64307;52.508;6.090;2024-01-06T04:31:45;15.43;;;7.17;;
75691;SDS011;64307;52.508;6.090;2024-01-06T04:34:10;14.20;;;6.70;;
75691;SDS011;64307;52.508;6.090;2024-01-06T04:36:36;14.60;;;6.87;;
75691;SDS011;64307;52.508;6.090;2024-01-06T04:39:01;14.60;;;7.07;;
75691;SDS011;64307;52.508;6.090;2024-01-06T04:41:26;13.60;;;6.83;;
75691;SDS011;64307;52.508;6.090;2024-01-06T04:43:51;13.20;;;6.23;;
75691;SDS011;64307;52.508;6.090;2024-01-06T04:46:16;12.57;;;6.27;;
75691;SDS011;64307;52.508;6.090;2024-01-06T04:48:42;14.33;;;6.87;;
75691;SDS011;64307;52.508;6.090;2024-01-06T04:51:08;13.60;;;6.15;;
75691;SDS011;64307;52.508;6.090;2024-01-06T04:53:35;13.27;;;6.78;;
75691;SDS011;64307;52.508;6.090;2024-01-06T04:56:00;14.57;;;7.80;;
75691;SDS011;64307;52.508;6.090;2024-01-06T04:58:26;15.67;;;7.30;;
75691;SDS011;64307;52.508;6.090;2024-01-06T05:00:51;16.17;;;7.00;;
75691;SDS011;64307;52.508;6.090;2024-01-06T05:03:17;14.55;;;7.30;;
75691;SDS011;64307;52.508;6.090;2024-01-06T05:05:43;18.00;;;7.60;;
75691;SDS011;64307;52.508;6.090;2024-01-06T05:08:08;18.10;;;8.60;;
75691;SDS011;64307;52.508;6.090;2024-01-06T05:10:33;17.43;;;7.57;;
75691;SDS011;64307;52.508;6.090;2024-01-06T05:12:58;14.57;;;6.97;;
75691;SDS011;64307;52.508;6.090;2024-01-06T05:15:23;16.07;;;7.63;;
75691;SDS011;64307;52.508;6.090;2024-01-06T05:17:48;15.60;;;7.17;;
75691;SDS011;64307;52.508;6.090;2024-01-06T05:20:14;18.73;;;8.27;;
75691;SDS011;64307;52.508;6.090;2024-01-06T05:22:39;17.33;;;7.90;;
75691;SDS011;64307;52.508;6.090;2024-01-06T05:25:04;15.83;;;7.47;;
75691;SDS011;64307;52.508;6.090;2024-01-06T05:27:29;16.23;;;7.88;;
75691;SDS011;64307;52.508;6.090;2024-01-06T05:29:54;18.53;;;8.07;;
75691;SDS011;64307;52.508;6.090;2024-01-06T05:32:20;16.58;;;8.30;;
75691;SDS011;64307;52.508;6.090;2024-01-06T05:34:45;20.00;;;8.90;;
75691;SDS011;64307;52.508;6.090;2024-01-06T05:37:10;19.27;;;8.17;;
75691;SDS011;64307;52.508;6.090;2024-01-06T05:39:37;17.40;;;8.20;;
75691;SDS011;64307;52.508;6.090;2024-01-06T05:44:27;18.73;;;8.57;;
75691;SDS011;64307;52.508;6.090;2024-01-06T05:46:52;18.60;;;8.77;;
75691;SDS011;64307;52.508;6.090;2024-01-06T05:49:17;18.77;;;9.20;;
75691;SDS011;64307;52.508;6.090;2024-01-06T05:51:45;17.27;;;8.17;;
75691;SDS011;64307;52.508;6.090;2024-01-06T05:54:11;18.13;;;8.25;;
75691;SDS011;64307;52.508;6.090;2024-01-06T05:56:36;21.43;;;8.83;;
75691;SDS011;64307;52.508;6.090;2024-01-06T05:59:01;16.63;;;8.60;;
75691;SDS011;64307;52.508;6.090;2024-01-06T06:01:27;19.02;;;8.05;;
75691;SDS011;64307;52.508;6.090;2024-01-06T06:03:53;17.17;;;8.30;;
75691;SDS011;64307;52.508;6.090;2024-01-06T06:06:18;16.90;;;8.27;;
75691;SDS011;64307;52.508;6.090;2024-01-06T06:08:43;16.23;;;8.02;;
75691;SDS011;64307;52.508;6.090;2024-01-06T06:11:09;18.27;;;8.52;;
75691;SDS011;64307;52.508;6.090;2024-01-06T06:13:38;17.23;;;7.15;;
75691;SDS011;64307;52.508;6.090;2024-01-06T06:16:03;18.98;;;8.15;;
75691;SDS011;64307;52.508;6.090;2024-01-06T06:18:29;16.15;;;6.97;;
75691;SDS011;64307;52.508;6.090;2024-01-06T06:20:54;17.30;;;7.80;;
75691;SDS011;64307;52.508;6.090;2024-01-06T06:23:19;20.87;;;8.60;;
75691;SDS011;64307;52.508;6.090;2024-01-06T06:25:44;16.50;;;7.07;;
75691;SDS011;64307;52.508;6.090;2024-01-06T06:28:09;15.33;;;6.63;;
75691;SDS011;64307;52.508;6.090;2024-01-06T06:30:35;16.57;;;8.23;;
75691;SDS011;64307;52.508;6.090;2024-01-06T06:33:00;16.63;;;6.83;;
75691;SDS011;64307;52.508;6.090;2024-01-06T06:35:25;18.10;;;6.77;;
75691;SDS011;64307;52.508;6.090;2024-01-06T06:37:51;15.20;;;6.30;;
75691;SDS011;64307;52.508;6.090;2024-01-06T06:40:16;17.73;;;7.37;;
75691;SDS011;64307;52.508;6.090;2024-01-06T06:42:41;16.60;;;6.60;;
75691;SDS011;64307;52.508;6.090;2024-01-06T06:45:06;14.30;;;6.17;;
75691;SDS011;64307;52.508;6.090;2024-01-06T06:47:32;12.75;;;5.68;;
75691;SDS011;64307;52.508;6.090;2024-01-06T06:49:57;13.13;;;5.87;;
75691;SDS011;64307;52.508;6.090;2024-01-06T06:52:22;15.40;;;6.10;;
75691;SDS011;64307;52.508;6.090;2024-01-06T06:54:47;15.23;;;6.40;;
75691;SDS011;64307;52.508;6.090;2024-01-06T06:57:14;15.38;;;6.13;;
75691;SDS011;64307;52.508;6.090;2024-01-06T06:59:40;15.38;;;5.75;;
75691;SDS011;64307;52.508;6.090;2024-01-06T07:02:05;15.65;;;5.85;;
75691;SDS011;64307;52.508;6.090;2024-01-06T07:04:30;19.20;;;6.97;;
75691;SDS011;64307;52.508;6.090;2024-01-06T07:06:56;21.17;;;6.90;;
75691;SDS011;64307;52.508;6.090;2024-01-06T07:09:22;14.20;;;6.15;;
75691;SDS011;64307;52.508;6.090;2024-01-06T07:11:48;15.07;;;6.97;;
75691;SDS011;64307;52.508;6.090;2024-01-06T07:14:13;17.35;;;6.88;;
75691;SDS011;64307;52.508;6.090;2024-01-06T07:16:38;13.60;;;6.27;;
75691;SDS011;64307;52.508;6.090;2024-01-06T07:19:04;19.20;;;7.80;;
75691;SDS011;64307;52.508;6.090;2024-01-06T07:21:30;16.95;;;6.65;;
75691;SDS011;64307;52.508;6.090;2024-01-06T07:23:55;14.87;;;7.53;;
75691;SDS011;64307;52.508;6.090;2024-01-06T07:26:21;18.47;;;7.20;;
75691;SDS011;64307;52.508;6.090;2024-01-06T07:28:46;15.37;;;6.60;;
75691;SDS011;64307;52.508;6.090;2024-01-06T07:31:11;15.32;;;7.20;;
75691;SDS011;64307;52.508;6.090;2024-01-06T07:33:36;15.05;;;6.88;;
75691;SDS011;64307;52.508;6.090;2024-01-06T07:36:02;16.47;;;8.27;;
75691;SDS011;64307;52.508;6.090;2024-01-06T07:38:27;15.93;;;7.27;;
75691;SDS011;64307;52.508;6.090;2024-01-06T07:40:53;14.73;;;7.32;;
75691;SDS011;64307;52.508;6.090;2024-01-06T07:43:19;15.02;;;7.00;;
75691;SDS011;64307;52.508;6.090;2024-01-06T07:45:44;17.23;;;6.97;;
75691;SDS011;64307;52.508;6.090;2024-01-06T07:48:09;15.60;;;6.70;;
75691;SDS011;64307;52.508;6.090;2024-01-06T07:50:35;15.53;;;6.50;;
75691;SDS011;64307;52.508;6.090;2024-01-06T07:53:00;14.90;;;6.23;;
75691;SDS011;64307;52.508;6.090;2024-01-06T07:55:25;14.13;;;6.10;;
75691;SDS011;64307;52.508;6.090;2024-01-06T07:57:53;14.93;;;6.35;;
75691;SDS011;64307;52.508;6.090;2024-01-06T08:00:18;14.17;;;6.53;;
75691;SDS011;64307;52.508;6.090;2024-01-06T08:02:44;13.35;;;6.60;;
75691;SDS011;64307;52.508;6.090;2024-01-06T08:05:09;13.93;;;6.37;;
75691;SDS011;64307;52.508;6.090;2024-01-06T08:07:34;14.05;;;6.50;;
75691;SDS011;64307;52.508;6.090;2024-01-06T08:10:00;14.23;;;7.17;;
75691;SDS011;64307;52.508;6.090;2024-01-06T08:12:26;19.13;;;7.45;;
75691;SDS011;64307;52.508;6.090;2024-01-06T08:14:51;14.52;;;6.35;;
75691;SDS011;64307;52.508;6.090;2024-01-06T08:17:17;17.40;;;6.67;;
75691;SDS011;64307;52.508;6.090;2024-01-06T08:19:42;14.55;;;6.80;;
75691;SDS011;64307;52.508;6.090;2024-01-06T08:22:07;14.10;;;6.15;;
75691;SDS011;64307;52.508;6.090;2024-01-06T08:24:32;12.00;;;5.87;;
75691;SDS011;64307;52.508;6.090;2024-01-06T08:26:58;16.50;;;6.38;;
75691;SDS011;64307;52.508;6.090;2024-01-06T08:29:24;15.65;;;7.38;;
75691;SDS011;64307;52.508;6.090;2024-01-06T08:31:49;12.87;;;6.30;;
75691;SDS011;64307;52.508;6.090;2024-01-06T08:34:17;14.30;;;6.88;;
75691;SDS011;64307;52.508;6.090;2024-01-06T08:36:42;14.38;;;6.53;;
75691;SDS011;64307;52.508;6.090;2024-01-06T08:41:34;13.55;;;5.90;;
75691;SDS011;64307;52.508;6.090;2024-01-06T08:43:59;12.88;;;6.13;;
75691;SDS011;64307;52.508;6.090;2024-01-06T08:46:24;15.53;;;6.57;;
75691;SDS011;64307;52.508;6.090;2024-01-06T08:48:50;12.83;;;5.33;;
75691;SDS011;64307;52.508;6.090;2024-01-06T08:51:15;17.33;;;6.33;;
75691;SDS011;64307;52.508;6.090;2024-01-06T08:53:40;14.80;;;6.53;;
75691;SDS011;64307;52.508;6.090;2024-01-06T08:56:05;12.23;;;6.43;;
75691;SDS011;64307;52.508;6.090;2024-01-06T08:58:31;10.35;;;5.05;;
75691;SDS011;64307;52.508;6.090;2024-01-06T09:00:58;15.20;;;6.33;;
75691;SDS011;64307;52.508;6.090;2024-01-06T09:03:24;14.05;;;6.45;;
75691;SDS011;64307;52.508;6.090;2024-01-06T09:05:55;10.63;;;5.88;;
75691;SDS011;64307;52.508;6.090;2024-01-06T09:08:20;14.23;;;5.35;;
75691;SDS011;64307;52.508;6.090;2024-01-06T09:10:46;14.07;;;6.20;;
75691;SDS011;64307;52.508;6.090;2024-01-06T09:13:11;13.30;;;6.15;;
75691;SDS011;64307;52.508;6.090;2024-01-06T09:15:36;13.57;;;6.13;;
75691;SDS011;64307;52.508;6.090;2024-01-06T09:18:01;12.23;;;5.80;;
75691;SDS011;64307;52.508;6.090;2024-01-06T09:20:27;12.45;;;6.20;;
75691;SDS011;64307;52.508;6.090;2024-01-06T09:22:53;11.73;;;5.47;;
75691;SDS011;64307;52.508;6.090;2024-01-06T09:25:18;12.13;;;5.82;;
75691;SDS011;64307;52.508;6.090;2024-01-06T09:27:43;11.37;;;6.10;;
75691;SDS011;64307;52.508;6.090;2024-01-06T09:30:08;13.13;;;6.23;;
75691;SDS011;64307;52.508;6.090;2024-01-06T09:32:34;12.35;;;6.85;;
75691;SDS011;64307;52.508;6.090;2024-01-06T09:34:59;11.80;;;5.90;;
75691;SDS011;64307;52.508;6.090;2024-01-06T09:37:24;10.40;;;5.83;;
75691;SDS011;64307;52.508;6.090;2024-01-06T09:39:49;11.93;;;6.27;;
75691;SDS011;64307;52.508;6.090;2024-01-06T09:42:14;12.03;;;5.80;;
75691;SDS011;64307;52.508;6.090;2024-01-06T09:44:39;11.17;;;6.27;;
75691;SDS011;64307;52.508;6.090;2024-01-06T09:47:06;12.23;;;6.77;;
75691;SDS011;64307;52.508;6.090;2024-01-06T09:49:35;13.45;;;6.03;;
75691;SDS011;64307;52.508;6.090;2024-01-06T09:52:03;13.55;;;7.55;;
75691;SDS011;64307;52.508;6.090;2024-01-06T09:56:54;10.80;;;5.50;;
75691;SDS011;64307;52.508;6.090;2024-01-06T09:59:22;14.00;;;6.13;;
75691;SDS011;64307;52.508;6.090;2024-01-06T10:04:14;12.25;;;5.40;;
75691;SDS011;64307;52.508;6.090;2024-01-06T10:06:40;14.63;;;6.27;;
75691;SDS011;64307;52.508;6.090;2024-01-06T10:09:05;12.93;;;5.60;;
75691;SDS011;64307;52.508;6.090;2024-01-06T10:11:31;12.35;;;6.28;;
75691;SDS011;64307;52.508;6.090;2024-01-06T10:13:56;12.73;;;6.80;;
75691;SDS011;64307;52.508;6.090;2024-01-06T10:16:21;14.23;;;8.30;;
75691;SDS011;64307;52.508;6.090;2024-01-06T10:18:47;13.63;;;6.55;;
75691;SDS011;64307;52.508;6.090;2024-01-06T10:21:12;13.87;;;6.23;;
75691;SDS011;64307;52.508;6.090;2024-01-06T10:23:38;11.52;;;6.07;;
75691;SDS011;64307;52.508;6.090;2024-01-06T10:26:04;12.63;;;6.47;;
75691;SDS011;64307;52.508;6.090;2024-01-06T10:28:29;12.03;;;6.27;;
75691;SDS011;64307;52.508;6.090;2024-01-06T10:30:54;14.87;;;6.83;;
75691;SDS011;64307;52.508;6.090;2024-01-06T10:33:20;18.27;;;7.20;;
75691;SDS011;64307;52.508;6.090;2024-01-06T10:35:46;16.13;;;8.35;;
75691;SDS011;64307;52.508;6.090;2024-01-06T10:38:11;11.52;;;5.93;;
75691;SDS011;64307;52.508;6.090;2024-01-06T10:40:36;16.70;;;6.63;;
75691;SDS011;64307;52.508;6.090;2024-01-06T10:43:02;14.87;;;7.33;;
75691;SDS011;64307;52.508;6.090;2024-01-06T10:45:28;14.93;;;7.75;;
75691;SDS011;64307;52.508;6.090;2024-01-06T10:47:54;14.80;;;8.07;;
75691;SDS011;64307;52.508;6.090;2024-01-06T10:50:20;15.57;;;7.77;;
75691;SDS011;64307;52.508;6.090;2024-01-06T10:52:46;12.93;;;6.78;;
75691;SDS011;64307;52.508;6.090;2024-01-06T10:55:12;17.58;;;7.35;;
75691;SDS011;64307;52.508;6.090;2024-01-06T10:57:40;15.50;;;7.60;;
75691;SDS011;64307;52.508;6.090;2024-01-06T11:00:08;16.83;;;8.10;;
75691;SDS011;64307;52.508;6.090;2024-01-06T11:02:34;14.70;;;7.60;;
75691;SDS011;64307;52.508;6.090;2024-01-06T11:05:00;16.30;;;7.43;;
75691;SDS011;64307;52.508;6.090;2024-01-06T11:07:25;15.18;;;7.97;;
75691;SDS011;64307;52.508;6.090;2024-01-06T11:12:16;14.57;;;7.07;;
75691;SDS011;64307;52.508;6.090;2024-01-06T11:14:42;16.80;;;7.28;;
75691;SDS011;64307;52.508;6.090;2024-01-06T11:17:07;15.47;;;7.10;;
75691;SDS011;64307;52.508;6.090;2024-01-06T11:24:50;18.02;;;7.82;;
75691;SDS011;64307;52.508;6.090;2024-01-06T11:27:22;14.90;;;7.28;;
75691;SDS011;64307;52.508;6.090;2024-01-06T11:29:51;16.42;;;8.27;;
75691;SDS011;64307;52.508;6.090;2024-01-06T11:32:17;14.65;;;7.82;;
75691;SDS011;64307;52.508;6.090;2024-01-06T11:34:49;14.75;;;7.85;;
75691;SDS011;64307;52.508;6.090;2024-01-06T11:37:14;14.55;;;7.75;;
75691;SDS011;64307;52.508;6.090;2024-01-06T11:39:42;15.88;;;7.55;;
75691;SDS011;64307;52.508;6.090;2024-01-06T11:42:11;12.90;;;7.75;;
75691;SDS011;64307;52.508;6.090;2024-01-06T11:44:38;14.38;;;7.50;;
75691;SDS011;64307;52.508;6.090;2024-01-06T11:47:04;17.38;;;7.57;;
75691;SDS011;64307;52.508;6.090;2024-01-06T11:49:30;14.07;;;7.80;;
75691;SDS011;64307;52.508;6.090;2024-01-06T11:51:58;17.38;;;7.75;;
75691;SDS011;64307;52.508;6.090;2024-01-06T11:54:23;14.32;;;7.30;;
75691;SDS011;64307;52.508;6.090;2024-01-06T11:56:48;15.90;;;8.20;;
75691;SDS011;64307;52.508;6.090;2024-01-06T11:59:14;13.60;;;7.37;;
75691;SDS011;64307;52.508;6.090;2024-01-06T12:01:39;15.30;;;7.85;;
75691;SDS011;64307;52.508;6.090;2024-01-06T12:04:05;15.95;;;7.80;;
75691;SDS011;64307;52.508;6.090;2024-01-06T12:06:31;14.32;;;6.95;;
75691;SDS011;64307;52.508;6.090;2024-01-06T12:09:14;13.75;;;6.95;;
75691;SDS011;64307;52.508;6.090;2024-01-06T12:11:43;13.60;;;6.57;;
75691;SDS011;64307;52.508;6.090;2024-01-06T12:14:11;14.13;;;7.35;;
75691;SDS011;64307;52.508;6.090;2024-01-06T12:16:37;13.43;;;7.18;;
75691;SDS011;64307;52.508;6.090;2024-01-06T12:19:02;12.97;;;6.77;;
75691;SDS011;64307;52.508;6.090;2024-01-06T12:21:29;13.57;;;6.85;;
75691;SDS011;64307;52.508;6.090;2024-01-06T12:24:11;13.35;;;7.22;;
75691;SDS011;64307;52.508;6.090;2024-01-06T12:26:37;13.57;;;6.65;;
75691;SDS011;64307;52.508;6.090;2024-01-06T12:29:03;12.03;;;6.63;;
75691;SDS011;64307;52.508;6.090;2024-01-06T12:31:29;12.63;;;6.85;;
75691;SDS011;64307;52.508;6.090;2024-01-06T12:33:55;13.48;;;7.93;;
75691;SDS011;64307;52.508;6.090;2024-01-06T12:36:20;14.32;;;7.90;;
75691;SDS011;64307;52.508;6.090;2024-01-06T12:38:46;13.63;;;7.37;;
75691;SDS011;64307;52.508;6.090;2024-01-06T12:41:11;13.93;;;7.33;;
75691;SDS011;64307;52.508;6.090;2024-01-06T12:43:36;14.27;;;7.40;;
75691;SDS011;64307;52.508;6.090;2024-01-06T12:46:01;15.87;;;7.43;;
75691;SDS011;64307;52.508;6.090;2024-01-06T12:48:26;13.93;;;7.07;;
75691;SDS011;64307;52.508;6.090;2024-01-06T12:50:52;15.37;;;7.23;;
75691;SDS011;64307;52.508;6.090;2024-01-06T12:53:17;14.30;;;7.20;;
75691;SDS011;64307;52.508;6.090;2024-01-06T12:55:42;13.47;;;6.67;;
75691;SDS011;64307;52.508;6.090;2024-01-06T12:58:08;14.15;;;7.07;;
75691;SDS011;64307;52.508;6.090;2024-01-06T13:00:33;13.43;;;7.43;;
75691;SDS011;64307;52.508;6.090;2024-01-06T13:02:58;14.77;;;6.70;;
75691;SDS011;64307;52.508;6.090;2024-01-06T13:05:23;14.13;;;6.80;;
75691;SDS011;64307;52.508;6.090;2024-01-06T13:07:49;14.73;;;7.00;;
75691;SDS011;64307;52.508;6.090;2024-01-06T13:10:14;13.47;;;7.47;;
75691;SDS011;64307;52.508;6.090;2024-01-06T13:12:40;12.52;;;6.30;;
75691;SDS011;64307;52.508;6.090;2024-01-06T13:15:05;12.77;;;6.17;;
75691;SDS011;64307;52.508;6.090;2024-01-06T13:17:30;13.13;;;7.07;;
75691;SDS011;64307;52.508;6.090;2024-01-06T13:19:56;15.43;;;6.65;;
75691;SDS011;64307;52.508;6.090;2024-01-06T13:22:21;15.27;;;6.97;;
75691;SDS011;64307;52.508;6.090;2024-01-06T13:24:47;16.77;;;9.50;;
75691;SDS011;64307;52.508;6.090;2024-01-06T13:27:12;15.90;;;7.57;;
75691;SDS011;64307;52.508;6.090;2024-01-06T13:29:37;13.55;;;7.57;;
75691;SDS011;64307;52.508;6.090;2024-01-06T13:32:03;12.25;;;6.75;;
75691;SDS011;64307;52.508;6.090;2024-01-06T13:34:30;14.15;;;7.72;;
75691;SDS011;64307;52.508;6.090;2024-01-06T13:36:55;14.53;;;7.90;;
75691;SDS011;64307;52.508;6.090;2024-01-06T13:39:22;13.85;;;7.15;;
75691;SDS011;64307;52.508;6.090;2024-01-06T13:41:47;14.13;;;8.07;;
75691;SDS011;64307;52.508;6.090;2024-01-06T13:44:13;11.00;;;6.07;;
75691;SDS011;64307;52.508;6.090;2024-01-06T13:46:38;12.10;;;7.28;;
75691;SDS011;64307;52.508;6.090;2024-01-06T13:49:06;15.90;;;9.70;;
75691;SDS011;64307;52.508;6.090;2024-01-06T13:51:31;12.83;;;6.90;;
75691;SDS011;64307;52.508;6.090;2024-01-06T13:53:56;12.50;;;7.30;;
75691;SDS011;64307;52.508;6.090;2024-01-06T13:56:22;14.48;;;7.25;;
75691;SDS011;64307;52.508;6.090;2024-01-06T13:58:47;12.97;;;6.67;;
75691;SDS011;64307;52.508;6.090;2024-01-06T14:01:12;14.33;;;6.87;;
75691;SDS011;64307;52.508;6.090;2024-01-06T14:03:38;13.57;;;7.22;;
75691;SDS011;64307;52.508;6.090;2024-01-06T14:06:04;12.75;;;6.70;;
75691;SDS011;64307;52.508;6.090;2024-01-06T14:08:31;15.35;;;6.80;;
75691;SDS011;64307;52.508;6.090;2024-01-06T14:10:56;11.37;;;6.43;;
75691;SDS011;64307;52.508;6.090;2024-01-06T14:13:21;14.43;;;6.50;;
75691;SDS011;64307;52.508;6.090;2024-01-06T14:15:46;13.97;;;6.77;;
75691;SDS011;64307;52.508;6.090;2024-01-06T14:18:12;15.00;;;7.72;;
75691;SDS011;64307;52.508;6.090;2024-01-06T14:20:39;14.55;;;7.25;;
75691;SDS011;64307;52.508;6.090;2024-01-06T14:23:05;14.00;;;7.38;;
75691;SDS011;64307;52.508;6.090;2024-01-06T14:25:31;14.23;;;7.40;;
75691;SDS011;64307;52.508;6.090;2024-01-06T14:27:56;13.00;;;6.60;;
75691;SDS011;64307;52.508;6.090;2024-01-06T14:30:21;13.70;;;7.03;;
75691;SDS011;64307;52.508;6.090;2024-01-06T14:32:47;14.80;;;6.40;;
75691;SDS011;64307;52.508;6.090;2024-01-06T14:35:12;13.07;;;7.03;;
75691;SDS011;64307;52.508;6.090;2024-01-06T14:37:39;14.25;;;7.50;;
75691;SDS011;64307;52.508;6.090;2024-01-06T14:40:04;13.97;;;7.00;;
75691;SDS011;64307;52.508;6.090;2024-01-06T14:42:30;12.75;;;6.35;;